Terminal Aerodrome Forecast
Issued by NWS Grand Forks, ND

Home | Current Version | Previous Version | Graphics & Text | Print | Product List | Glossary On
Versions: 1 2 3 4 5 6 7 8 9 10 11 12 13 14
000
FTUS43 KFGF 161100
TAFFAR
TAF
KFAR 161120Z 1612/1712 07013KT 2SM -SN OVC030
      TEMPO 1612/1613 1SM -SN
     FM161300 05015G23KT 4SM -SN OVC025
     FM161700 04022G30KT P6SM BKN035
     FM170300 02012KT P6SM BKN060=

USA.gov is the U.S. government's official web portal to all federal, state and local government web resources and services.